sensor_id;sensor_type;location;lat;lon;timestamp;P1;durP1;ratioP1;P2;durP2;ratioP2
41514;SDS011;27247;48.020;16.720;2023-04-08T00:02:59;61.67;;;30.73;;
41514;SDS011;27247;48.020;16.720;2023-04-08T00:07:10;62.45;;;31.25;;
41514;SDS011;27247;48.020;16.720;2023-04-08T00:11:21;59.05;;;29.25;;
41514;SDS011;27247;48.020;16.720;2023-04-08T00:15:31;54.30;;;26.75;;
41514;SDS011;27247;48.020;16.720;2023-04-08T00:19:41;53.20;;;27.53;;
41514;SDS011;27247;48.020;16.720;2023-04-08T00:23:52;49.97;;;26.63;;
41514;SDS011;27247;48.020;16.720;2023-04-08T00:28:02;50.42;;;25.13;;
41514;SDS011;27247;48.020;16.720;2023-04-08T00:32:12;49.38;;;24.58;;
41514;SDS011;27247;48.020;16.720;2023-04-08T00:36:23;42.50;;;21.60;;
41514;SDS011;27247;48.020;16.720;2023-04-08T00:40:33;36.55;;;19.60;;
41514;SDS011;27247;48.020;16.720;2023-04-08T00:44:44;29.98;;;15.98;;
41514;SDS011;27247;48.020;16.720;2023-04-08T00:48:54;23.63;;;13.80;;
41514;SDS011;27247;48.020;16.720;2023-04-08T00:53:05;23.00;;;13.43;;
41514;SDS011;27247;48.020;16.720;2023-04-08T00:57:15;25.77;;;13.77;;
41514;SDS011;27247;48.020;16.720;2023-04-08T01:01:42;23.63;;;13.48;;
41514;SDS011;27247;48.020;16.720;2023-04-08T01:06:03;20.10;;;12.30;;
41514;SDS011;27247;48.020;16.720;2023-04-08T01:10:36;15.13;;;9.63;;
41514;SDS011;27247;48.020;16.720;2023-04-08T01:14:54;15.15;;;10.00;;
41514;SDS011;27247;48.020;16.720;2023-04-08T01:19:18;16.67;;;9.88;;
41514;SDS011;27247;48.020;16.720;2023-04-08T01:23:38;13.18;;;8.07;;
41514;SDS011;27247;48.020;16.720;2023-04-08T01:28:11;12.77;;;8.25;;
41514;SDS011;27247;48.020;16.720;2023-04-08T01:32:25;13.25;;;8.35;;
41514;SDS011;27247;48.020;16.720;2023-04-08T01:36:36;13.85;;;8.68;;
41514;SDS011;27247;48.020;16.720;2023-04-08T01:40:48;13.43;;;8.20;;
41514;SDS011;27247;48.020;16.720;2023-04-08T01:45:00;14.70;;;8.88;;
41514;SDS011;27247;48.020;16.720;2023-04-08T01:49:12;14.73;;;8.82;;
41514;SDS011;27247;48.020;16.720;2023-04-08T01:53:24;11.95;;;7.85;;
41514;SDS011;27247;48.020;16.720;2023-04-08T01:57:36;11.88;;;7.50;;
41514;SDS011;27247;48.020;16.720;2023-04-08T02:01:47;9.60;;;6.93;;
41514;SDS011;27247;48.020;16.720;2023-04-08T02:05:59;8.75;;;5.57;;
41514;SDS011;27247;48.020;16.720;2023-04-08T02:10:10;14.38;;;7.85;;
41514;SDS011;27247;48.020;16.720;2023-04-08T02:14:20;14.18;;;7.97;;
41514;SDS011;27247;48.020;16.720;2023-04-08T02:18:31;11.55;;;7.60;;
41514;SDS011;27247;48.020;16.720;2023-04-08T02:22:47;13.80;;;8.25;;
41514;SDS011;27247;48.020;16.720;2023-04-08T02:27:09;14.50;;;8.90;;
41514;SDS011;27247;48.020;16.720;2023-04-08T02:31:20;13.95;;;8.38;;
41514;SDS011;27247;48.020;16.720;2023-04-08T02:35:30;14.98;;;8.77;;
41514;SDS011;27247;48.020;16.720;2023-04-08T02:39:41;12.15;;;7.75;;
41514;SDS011;27247;48.020;16.720;2023-04-08T02:43:52;12.80;;;7.40;;
41514;SDS011;27247;48.020;16.720;2023-04-08T02:48:04;12.35;;;6.97;;
41514;SDS011;27247;48.020;16.720;2023-04-08T02:52:15;10.98;;;6.95;;
41514;SDS011;27247;48.020;16.720;2023-04-08T02:56:25;11.32;;;6.07;;
41514;SDS011;27247;48.020;16.720;2023-04-08T03:00:35;7.65;;;5.50;;
41514;SDS011;27247;48.020;16.720;2023-04-08T03:04:48;8.57;;;5.07;;
41514;SDS011;27247;48.020;16.720;2023-04-08T03:08:58;7.43;;;4.95;;
41514;SDS011;27247;48.020;16.720;2023-04-08T03:13:09;6.13;;;4.70;;
41514;SDS011;27247;48.020;16.720;2023-04-08T03:17:19;6.68;;;4.15;;
41514;SDS011;27247;48.020;16.720;2023-04-08T03:21:30;7.15;;;3.83;;
41514;SDS011;27247;48.020;16.720;2023-04-08T03:25:41;4.15;;;2.95;;
41514;SDS011;27247;48.020;16.720;2023-04-08T03:29:51;5.93;;;3.70;;
41514;SDS011;27247;48.020;16.720;2023-04-08T03:34:02;4.07;;;3.25;;
41514;SDS011;27247;48.020;16.720;2023-04-08T03:38:12;6.00;;;4.05;;
41514;SDS011;27247;48.020;16.720;2023-04-08T03:42:22;5.65;;;3.75;;
41514;SDS011;27247;48.020;16.720;2023-04-08T03:46:33;5.50;;;3.95;;
41514;SDS011;27247;48.020;16.720;2023-04-08T03:50:43;6.80;;;4.28;;
41514;SDS011;27247;48.020;16.720;2023-04-08T03:54:54;7.97;;;4.60;;
41514;SDS011;27247;48.020;16.720;2023-04-08T03:59:04;6.63;;;4.38;;
41514;SDS011;27247;48.020;16.720;2023-04-08T04:03:14;4.37;;;3.40;;
41514;SDS011;27247;48.020;16.720;2023-04-08T04:07:25;4.07;;;3.08;;
41514;SDS011;27247;48.020;16.720;2023-04-08T04:11:35;5.47;;;3.30;;
41514;SDS011;27247;48.020;16.720;2023-04-08T04:15:46;5.13;;;2.78;;
41514;SDS011;27247;48.020;16.720;2023-04-08T04:19:56;4.78;;;3.10;;
41514;SDS011;27247;48.020;16.720;2023-04-08T04:24:06;5.32;;;3.88;;
41514;SDS011;27247;48.020;16.720;2023-04-08T04:28:17;4.95;;;3.25;;
41514;SDS011;27247;48.020;16.720;2023-04-08T04:32:27;4.55;;;3.38;;
41514;SDS011;27247;48.020;16.720;2023-04-08T04:36:37;5.43;;;3.60;;
41514;SDS011;27247;48.020;16.720;2023-04-08T04:40:48;4.50;;;2.70;;
41514;SDS011;27247;48.020;16.720;2023-04-08T04:44:58;4.80;;;3.67;;
41514;SDS011;27247;48.020;16.720;2023-04-08T04:49:09;5.30;;;3.63;;
41514;SDS011;27247;48.020;16.720;2023-04-08T04:53:19;4.85;;;3.20;;
41514;SDS011;27247;48.020;16.720;2023-04-08T04:57:30;5.35;;;3.75;;
41514;SDS011;27247;48.020;16.720;2023-04-08T05:01:40;6.65;;;4.10;;
41514;SDS011;27247;48.020;16.720;2023-04-08T05:05:51;8.23;;;5.47;;
41514;SDS011;27247;48.020;16.720;2023-04-08T05:10:03;8.15;;;5.18;;
41514;SDS011;27247;48.020;16.720;2023-04-08T05:14:14;6.60;;;4.28;;
41514;SDS011;27247;48.020;16.720;2023-04-08T05:18:24;5.32;;;3.88;;
41514;SDS011;27247;48.020;16.720;2023-04-08T05:22:35;6.70;;;4.40;;
41514;SDS011;27247;48.020;16.720;2023-04-08T05:26:45;5.78;;;3.65;;
41514;SDS011;27247;48.020;16.720;2023-04-08T05:30:57;7.43;;;4.35;;
41514;SDS011;27247;48.020;16.720;2023-04-08T05:35:08;6.22;;;4.35;;
41514;SDS011;27247;48.020;16.720;2023-04-08T05:39:19;5.75;;;4.28;;
41514;SDS011;27247;48.020;16.720;2023-04-08T05:43:31;6.75;;;4.45;;
41514;SDS011;27247;48.020;16.720;2023-04-08T05:47:42;5.68;;;4.10;;
41514;SDS011;27247;48.020;16.720;2023-04-08T05:51:52;6.85;;;4.75;;
41514;SDS011;27247;48.020;16.720;2023-04-08T05:56:03;9.63;;;5.20;;
41514;SDS011;27247;48.020;16.720;2023-04-08T06:00:13;6.95;;;4.32;;
41514;SDS011;27247;48.020;16.720;2023-04-08T06:04:24;5.88;;;3.97;;
41514;SDS011;27247;48.020;16.720;2023-04-08T06:08:34;6.97;;;4.53;;
41514;SDS011;27247;48.020;16.720;2023-04-08T06:12:44;6.05;;;4.53;;
41514;SDS011;27247;48.020;16.720;2023-04-08T06:16:55;7.57;;;5.43;;
41514;SDS011;27247;48.020;16.720;2023-04-08T06:21:06;9.65;;;5.35;;
41514;SDS011;27247;48.020;16.720;2023-04-08T06:25:16;11.02;;;6.28;;
41514;SDS011;27247;48.020;16.720;2023-04-08T06:29:26;9.40;;;6.03;;
41514;SDS011;27247;48.020;16.720;2023-04-08T06:33:38;8.02;;;5.50;;
41514;SDS011;27247;48.020;16.720;2023-04-08T06:37:49;7.95;;;5.90;;
41514;SDS011;27247;48.020;16.720;2023-04-08T06:41:59;11.10;;;5.75;;
41514;SDS011;27247;48.020;16.720;2023-04-08T06:46:10;7.88;;;5.32;;
41514;SDS011;27247;48.020;16.720;2023-04-08T06:50:20;9.77;;;5.18;;
41514;SDS011;27247;48.020;16.720;2023-04-08T06:54:31;10.20;;;5.40;;
41514;SDS011;27247;48.020;16.720;2023-04-08T06:58:41;11.18;;;5.70;;
41514;SDS011;27247;48.020;16.720;2023-04-08T07:02:51;11.00;;;5.93;;
41514;SDS011;27247;48.020;16.720;2023-04-08T07:07:02;9.77;;;5.80;;
41514;SDS011;27247;48.020;16.720;2023-04-08T07:11:12;10.03;;;6.30;;
41514;SDS011;27247;48.020;16.720;2023-04-08T07:15:22;12.18;;;6.80;;
41514;SDS011;27247;48.020;16.720;2023-04-08T07:19:33;11.10;;;6.47;;
41514;SDS011;27247;48.020;16.720;2023-04-08T07:23:43;9.60;;;5.80;;
41514;SDS011;27247;48.020;16.720;2023-04-08T07:27:53;10.60;;;6.00;;
41514;SDS011;27247;48.020;16.720;2023-04-08T07:32:04;12.90;;;7.25;;
41514;SDS011;27247;48.020;16.720;2023-04-08T07:36:14;13.27;;;7.65;;
41514;SDS011;27247;48.020;16.720;2023-04-08T07:40:27;24.65;;;10.60;;
41514;SDS011;27247;48.020;16.720;2023-04-08T07:44:37;39.53;;;16.05;;
41514;SDS011;27247;48.020;16.720;2023-04-08T07:48:47;35.35;;;14.38;;
41514;SDS011;27247;48.020;16.720;2023-04-08T07:52:58;30.80;;;14.18;;
41514;SDS011;27247;48.020;16.720;2023-04-08T07:57:08;9.90;;;6.20;;
41514;SDS011;27247;48.020;16.720;2023-04-08T08:01:20;60.45;;;26.73;;
41514;SDS011;27247;48.020;16.720;2023-04-08T08:05:32;12.13;;;8.95;;
41514;SDS011;27247;48.020;16.720;2023-04-08T08:09:42;8.57;;;5.93;;
41514;SDS011;27247;48.020;16.720;2023-04-08T08:13:53;10.98;;;6.55;;
41514;SDS011;27247;48.020;16.720;2023-04-08T08:18:03;8.40;;;6.10;;
41514;SDS011;27247;48.020;16.720;2023-04-08T08:22:13;10.77;;;6.50;;
41514;SDS011;27247;48.020;16.720;2023-04-08T08:26:24;9.63;;;5.93;;
41514;SDS011;27247;48.020;16.720;2023-04-08T08:30:34;12.10;;;6.72;;
41514;SDS011;27247;48.020;16.720;2023-04-08T08:34:45;11.77;;;7.05;;
41514;SDS011;27247;48.020;16.720;2023-04-08T08:38:55;10.10;;;6.13;;
41514;SDS011;27247;48.020;16.720;2023-04-08T08:43:05;11.10;;;6.05;;
41514;SDS011;27247;48.020;16.720;2023-04-08T08:47:16;12.38;;;7.13;;
41514;SDS011;27247;48.020;16.720;2023-04-08T08:51:27;8.15;;;5.43;;
41514;SDS011;27247;48.020;16.720;2023-04-08T08:55:38;10.50;;;5.88;;
41514;SDS011;27247;48.020;16.720;2023-04-08T08:59:49;18.80;;;8.65;;
41514;SDS011;27247;48.020;16.720;2023-04-08T09:04:21;14.63;;;7.38;;
41514;SDS011;27247;48.020;16.720;2023-04-08T09:08:34;9.02;;;5.78;;
41514;SDS011;27247;48.020;16.720;2023-04-08T09:12:52;9.55;;;6.13;;
41514;SDS011;27247;48.020;16.720;2023-04-08T09:17:04;10.45;;;6.10;;
41514;SDS011;27247;48.020;16.720;2023-04-08T09:21:15;11.07;;;6.47;;
41514;SDS011;27247;48.020;16.720;2023-04-08T09:25:27;10.10;;;5.75;;
41514;SDS011;27247;48.020;16.720;2023-04-08T09:29:39;10.35;;;6.10;;
41514;SDS011;27247;48.020;16.720;2023-04-08T09:33:52;9.52;;;6.10;;
41514;SDS011;27247;48.020;16.720;2023-04-08T09:38:04;10.57;;;6.32;;
41514;SDS011;27247;48.020;16.720;2023-04-08T09:42:14;10.70;;;6.53;;
41514;SDS011;27247;48.020;16.720;2023-04-08T09:46:31;13.63;;;8.10;;
41514;SDS011;27247;48.020;16.720;2023-04-08T09:51:02;13.55;;;8.00;;
41514;SDS011;27247;48.020;16.720;2023-04-08T09:55:13;15.85;;;7.78;;
41514;SDS011;27247;48.020;16.720;2023-04-08T09:59:29;14.80;;;7.72;;
41514;SDS011;27247;48.020;16.720;2023-04-08T10:03:45;11.18;;;6.53;;
41514;SDS011;27247;48.020;16.720;2023-04-08T10:07:58;12.55;;;7.85;;
41514;SDS011;27247;48.020;16.720;2023-04-08T10:12:09;15.05;;;9.45;;
41514;SDS011;27247;48.020;16.720;2023-04-08T10:16:23;13.82;;;8.68;;
41514;SDS011;27247;48.020;16.720;2023-04-08T10:25:12;15.30;;;7.95;;
41514;SDS011;27247;48.020;16.720;2023-04-08T10:29:36;9.45;;;6.35;;
41514;SDS011;27247;48.020;16.720;2023-04-08T10:33:46;9.60;;;6.43;;
41514;SDS011;27247;48.020;16.720;2023-04-08T10:37:57;10.20;;;6.63;;
41514;SDS011;27247;48.020;16.720;2023-04-08T10:42:08;8.88;;;6.93;;
41514;SDS011;27247;48.020;16.720;2023-04-08T10:46:21;7.70;;;6.40;;
41514;SDS011;27247;48.020;16.720;2023-04-08T10:50:32;11.55;;;8.57;;
41514;SDS011;27247;48.020;16.720;2023-04-08T10:54:45;11.20;;;7.55;;
41514;SDS011;27247;48.020;16.720;2023-04-08T10:58:57;11.30;;;8.40;;
41514;SDS011;27247;48.020;16.720;2023-04-08T11:03:08;11.10;;;8.40;;
41514;SDS011;27247;48.020;16.720;2023-04-08T11:07:20;13.50;;;9.23;;
41514;SDS011;27247;48.020;16.720;2023-04-08T11:11:30;11.25;;;7.70;;
41514;SDS011;27247;48.020;16.720;2023-04-08T11:15:41;10.48;;;7.72;;
41514;SDS011;27247;48.020;16.720;2023-04-08T11:19:51;12.63;;;9.07;;
41514;SDS011;27247;48.020;16.720;2023-04-08T11:24:06;15.15;;;9.90;;
41514;SDS011;27247;48.020;16.720;2023-04-08T11:28:19;13.48;;;8.98;;
41514;SDS011;27247;48.020;16.720;2023-04-08T11:32:30;13.68;;;9.15;;
41514;SDS011;27247;48.020;16.720;2023-04-08T11:36:40;12.95;;;9.10;;
41514;SDS011;27247;48.020;16.720;2023-04-08T11:40:51;13.75;;;9.00;;
41514;SDS011;27247;48.020;16.720;2023-04-08T11:45:09;10.75;;;8.15;;
41514;SDS011;27247;48.020;16.720;2023-04-08T11:49:21;15.75;;;9.63;;
41514;SDS011;27247;48.020;16.720;2023-04-08T11:53:31;15.73;;;9.10;;
41514;SDS011;27247;48.020;16.720;2023-04-08T11:57:41;18.27;;;9.77;;
41514;SDS011;27247;48.020;16.720;2023-04-08T12:01:52;14.47;;;9.20;;
41514;SDS011;27247;48.020;16.720;2023-04-08T12:06:02;16.70;;;10.00;;
41514;SDS011;27247;48.020;16.720;2023-04-08T12:10:14;15.88;;;9.98;;
41514;SDS011;27247;48.020;16.720;2023-04-08T12:14:24;14.40;;;9.52;;
41514;SDS011;27247;48.020;16.720;2023-04-08T12:18:35;17.20;;;10.25;;
41514;SDS011;27247;48.020;16.720;2023-04-08T12:22:46;18.83;;;11.65;;
41514;SDS011;27247;48.020;16.720;2023-04-08T12:26:56;21.10;;;13.23;;
41514;SDS011;27247;48.020;16.720;2023-04-08T12:31:06;12.77;;;7.87;;
41514;SDS011;27247;48.020;16.720;2023-04-08T12:35:17;8.88;;;5.93;;
41514;SDS011;27247;48.020;16.720;2023-04-08T12:39:27;8.07;;;6.13;;
41514;SDS011;27247;48.020;16.720;2023-04-08T12:43:37;10.90;;;6.50;;
41514;SDS011;27247;48.020;16.720;2023-04-08T12:47:48;11.68;;;7.88;;
41514;SDS011;27247;48.020;16.720;2023-04-08T12:51:58;11.93;;;8.30;;
41514;SDS011;27247;48.020;16.720;2023-04-08T12:56:08;11.50;;;8.43;;
41514;SDS011;27247;48.020;16.720;2023-04-08T13:00:19;14.52;;;9.82;;
41514;SDS011;27247;48.020;16.720;2023-04-08T13:04:29;15.90;;;9.95;;
41514;SDS011;27247;48.020;16.720;2023-04-08T13:08:40;14.45;;;10.25;;
41514;SDS011;27247;48.020;16.720;2023-04-08T13:12:50;16.88;;;11.32;;
41514;SDS011;27247;48.020;16.720;2023-04-08T13:17:00;15.23;;;10.30;;
41514;SDS011;27247;48.020;16.720;2023-04-08T13:21:11;15.00;;;10.40;;
41514;SDS011;27247;48.020;16.720;2023-04-08T13:25:21;14.60;;;10.07;;
41514;SDS011;27247;48.020;16.720;2023-04-08T13:29:31;12.70;;;9.00;;
41514;SDS011;27247;48.020;16.720;2023-04-08T13:33:42;13.30;;;9.07;;
41514;SDS011;27247;48.020;16.720;2023-04-08T13:37:52;12.82;;;8.90;;
41514;SDS011;27247;48.020;16.720;2023-04-08T13:42:02;13.37;;;9.17;;
41514;SDS011;27247;48.020;16.720;2023-04-08T13:46:13;13.23;;;8.47;;
41514;SDS011;27247;48.020;16.720;2023-04-08T13:50:23;15.45;;;9.80;;
41514;SDS011;27247;48.020;16.720;2023-04-08T13:54:34;14.82;;;9.43;;
41514;SDS011;27247;48.020;16.720;2023-04-08T13:58:44;13.48;;;8.98;;
41514;SDS011;27247;48.020;16.720;2023-04-08T14:02:55;13.90;;;9.07;;
41514;SDS011;27247;48.020;16.720;2023-04-08T14:07:06;14.80;;;9.38;;
41514;SDS011;27247;48.020;16.720;2023-04-08T14:11:16;15.88;;;9.95;;
41514;SDS011;27247;48.020;16.720;2023-04-08T14:15:27;16.63;;;10.23;;
41514;SDS011;27247;48.020;16.720;2023-04-08T14:19:37;16.33;;;10.17;;
41514;SDS011;27247;48.020;16.720;2023-04-08T14:23:47;14.65;;;9.82;;
41514;SDS011;27247;48.020;16.720;2023-04-08T14:27:58;14.48;;;9.13;;
41514;SDS011;27247;48.020;16.720;2023-04-08T14:32:08;14.33;;;9.57;;
41514;SDS011;27247;48.020;16.720;2023-04-08T14:36:18;13.80;;;8.47;;
41514;SDS011;27247;48.020;16.720;2023-04-08T14:40:29;12.50;;;8.60;;
41514;SDS011;27247;48.020;16.720;2023-04-08T14:44:39;16.70;;;10.00;;
41514;SDS011;27247;48.020;16.720;2023-04-08T14:48:50;13.95;;;9.25;;
41514;SDS011;27247;48.020;16.720;2023-04-08T14:53:00;17.80;;;11.50;;
41514;SDS011;27247;48.020;16.720;2023-04-08T14:57:11;17.52;;;11.10;;
41514;SDS011;27247;48.020;16.720;2023-04-08T15:01:22;20.33;;;11.98;;
41514;SDS011;27247;48.020;16.720;2023-04-08T15:05:32;19.65;;;11.68;;
41514;SDS011;27247;48.020;16.720;2023-04-08T15:09:42;18.60;;;11.50;;
41514;SDS011;27247;48.020;16.720;2023-04-08T15:13:53;19.90;;;13.47;;
41514;SDS011;27247;48.020;16.720;2023-04-08T15:18:03;20.40;;;12.90;;
41514;SDS011;27247;48.020;16.720;2023-04-08T15:22:13;19.27;;;12.95;;
41514;SDS011;27247;48.020;16.720;2023-04-08T15:26:24;19.52;;;12.07;;
41514;SDS011;27247;48.020;16.720;2023-04-08T15:30:34;25.02;;;15.43;;
41514;SDS011;27247;48.020;16.720;2023-04-08T15:34:45;23.10;;;13.80;;
41514;SDS011;27247;48.020;16.720;2023-04-08T15:38:56;21.88;;;13.68;;
41514;SDS011;27247;48.020;16.720;2023-04-08T15:43:06;21.35;;;12.85;;
41514;SDS011;27247;48.020;16.720;2023-04-08T15:47:19;21.50;;;12.57;;
41514;SDS011;27247;48.020;16.720;2023-04-08T15:51:29;20.53;;;12.10;;
41514;SDS011;27247;48.020;16.720;2023-04-08T15:55:39;18.73;;;11.57;;
41514;SDS011;27247;48.020;16.720;2023-04-08T15:59:51;19.75;;;12.40;;
41514;SDS011;27247;48.020;16.720;2023-04-08T16:04:02;17.38;;;10.73;;
41514;SDS011;27247;48.020;16.720;2023-04-08T16:08:13;16.55;;;9.93;;
41514;SDS011;27247;48.020;16.720;2023-04-08T16:12:24;19.10;;;10.82;;
41514;SDS011;27247;48.020;16.720;2023-04-08T16:16:34;19.08;;;11.18;;
41514;SDS011;27247;48.020;16.720;2023-04-08T16:20:47;19.60;;;11.27;;
41514;SDS011;27247;48.020;16.720;2023-04-08T16:24:58;19.52;;;12.05;;
41514;SDS011;27247;48.020;16.720;2023-04-08T16:29:09;22.42;;;12.50;;
41514;SDS011;27247;48.020;16.720;2023-04-08T16:33:19;19.93;;;11.27;;
41514;SDS011;27247;48.020;16.720;2023-04-08T16:41:48;19.23;;;11.77;;
41514;SDS011;27247;48.020;16.720;2023-04-08T16:45:59;24.90;;;12.83;;
41514;SDS011;27247;48.020;16.720;2023-04-08T16:50:17;27.48;;;14.55;;
41514;SDS011;27247;48.020;16.720;2023-04-08T16:54:27;21.60;;;13.27;;
41514;SDS011;27247;48.020;16.720;2023-04-08T16:58:38;21.15;;;13.27;;
41514;SDS011;27247;48.020;16.720;2023-04-08T17:02:48;24.77;;;13.20;;
41514;SDS011;27247;48.020;16.720;2023-04-08T17:06:58;20.92;;;13.05;;
41514;SDS011;27247;48.020;16.720;2023-04-08T17:11:09;23.10;;;14.18;;
41514;SDS011;27247;48.020;16.720;2023-04-08T17:15:22;24.73;;;14.10;;
41514;SDS011;27247;48.020;16.720;2023-04-08T17:19:33;23.38;;;13.95;;
41514;SDS011;27247;48.020;16.720;2023-04-08T17:23:43;25.25;;;14.88;;
41514;SDS011;27247;48.020;16.720;2023-04-08T17:27:53;24.70;;;13.70;;
41514;SDS011;27247;48.020;16.720;2023-04-08T17:32:04;27.77;;;14.05;;
41514;SDS011;27247;48.020;16.720;2023-04-08T17:36:14;26.60;;;15.15;;
41514;SDS011;27247;48.020;16.720;2023-04-08T17:40:26;27.88;;;16.58;;
41514;SDS011;27247;48.020;16.720;2023-04-08T17:44:36;26.45;;;14.82;;
41514;SDS011;27247;48.020;16.720;2023-04-08T17:48:47;26.60;;;15.65;;
41514;SDS011;27247;48.020;16.720;2023-04-08T17:52:58;29.33;;;17.60;;
41514;SDS011;27247;48.020;16.720;2023-04-08T17:57:09;26.67;;;15.38;;
41514;SDS011;27247;48.020;16.720;2023-04-08T18:01:19;22.67;;;13.73;;
41514;SDS011;27247;48.020;16.720;2023-04-08T18:05:31;26.23;;;14.52;;
41514;SDS011;27247;48.020;16.720;2023-04-08T18:09:41;24.80;;;13.83;;
41514;SDS011;27247;48.020;16.720;2023-04-08T18:13:51;22.70;;;13.73;;
41514;SDS011;27247;48.020;16.720;2023-04-08T18:18:02;23.70;;;12.55;;
41514;SDS011;27247;48.020;16.720;2023-04-08T18:22:13;25.23;;;13.65;;
41514;SDS011;27247;48.020;16.720;2023-04-08T18:26:23;27.67;;;14.67;;
41514;SDS011;27247;48.020;16.720;2023-04-08T18:30:33;25.02;;;14.52;;
41514;SDS011;27247;48.020;16.720;2023-04-08T18:34:44;23.65;;;14.52;;
41514;SDS011;27247;48.020;16.720;2023-04-08T18:38:54;28.65;;;16.10;;
41514;SDS011;27247;48.020;16.720;2023-04-08T18:43:05;29.33;;;16.23;;
41514;SDS011;27247;48.020;16.720;2023-04-08T18:47:15;64.25;;;30.67;;
41514;SDS011;27247;48.020;16.720;2023-04-08T18:51:26;73.50;;;35.13;;
41514;SDS011;27247;48.020;16.720;2023-04-08T18:55:37;38.25;;;21.80;;
41514;SDS011;27247;48.020;16.720;2023-04-08T18:59:48;28.98;;;17.90;;
41514;SDS011;27247;48.020;16.720;2023-04-08T19:03:58;30.08;;;18.67;;
41514;SDS011;27247;48.020;16.720;2023-04-08T19:08:08;33.00;;;18.10;;
41514;SDS011;27247;48.020;16.720;2023-04-08T19:12:19;28.77;;;15.68;;
41514;SDS011;27247;48.020;16.720;2023-04-08T19:16:29;26.45;;;15.40;;
41514;SDS011;27247;48.020;16.720;2023-04-08T19:20:40;29.63;;;15.40;;
41514;SDS011;27247;48.020;16.720;2023-04-08T19:24:50;23.73;;;14.25;;
41514;SDS011;27247;48.020;16.720;2023-04-08T19:29:01;24.38;;;14.75;;
41514;SDS011;27247;48.020;16.720;2023-04-08T19:33:11;28.13;;;15.70;;
41514;SDS011;27247;48.020;16.720;2023-04-08T19:37:21;27.90;;;15.13;;
41514;SDS011;27247;48.020;16.720;2023-04-08T19:41:32;30.40;;;15.85;;
41514;SDS011;27247;48.020;16.720;2023-04-08T19:45:42;26.45;;;14.95;;
41514;SDS011;27247;48.020;16.720;2023-04-08T19:49:53;25.70;;;15.15;;
41514;SDS011;27247;48.020;16.720;2023-04-08T19:54:04;27.05;;;15.55;;
41514;SDS011;27247;48.020;16.720;2023-04-08T19:58:14;26.83;;;15.00;;
41514;SDS011;27247;48.020;16.720;2023-04-08T20:02:25;30.90;;;15.63;;
41514;SDS011;27247;48.020;16.720;2023-04-08T20:06:35;30.63;;;16.02;;
41514;SDS011;27247;48.020;16.720;2023-04-08T20:10:45;27.40;;;15.60;;
41514;SDS011;27247;48.020;16.720;2023-04-08T20:14:58;26.48;;;15.80;;
41514;SDS011;27247;48.020;16.720;2023-04-08T20:19:08;29.88;;;16.48;;
41514;SDS011;27247;48.020;16.720;2023-04-08T20:23:18;28.65;;;15.75;;
41514;SDS011;27247;48.020;16.720;2023-04-08T20:27:30;28.67;;;16.50;;
41514;SDS011;27247;48.020;16.720;2023-04-08T20:31:40;27.67;;;15.98;;
41514;SDS011;27247;48.020;16.720;2023-04-08T20:35:51;25.73;;;15.30;;
41514;SDS011;27247;48.020;16.720;2023-04-08T20:40:02;33.75;;;17.05;;
41514;SDS011;27247;48.020;16.720;2023-04-08T20:44:12;33.10;;;18.52;;
41514;SDS011;27247;48.020;16.720;2023-04-08T20:48:23;32.10;;;16.92;;
41514;SDS011;27247;48.020;16.720;2023-04-08T20:52:33;30.17;;;17.53;;
41514;SDS011;27247;48.020;16.720;2023-04-08T20:56:43;35.00;;;18.43;;
41514;SDS011;27247;48.020;16.720;2023-04-08T21:00:55;36.22;;;19.98;;
41514;SDS011;27247;48.020;16.720;2023-04-08T21:05:06;35.85;;;18.90;;
41514;SDS011;27247;48.020;16.720;2023-04-08T21:09:17;35.33;;;20.00;;
41514;SDS011;27247;48.020;16.720;2023-04-08T21:13:27;34.50;;;19.70;;
41514;SDS011;27247;48.020;16.720;2023-04-08T21:17:38;32.35;;;19.23;;
41514;SDS011;27247;48.020;16.720;2023-04-08T21:21:48;32.40;;;18.33;;
41514;SDS011;27247;48.020;16.720;2023-04-08T21:25:58;35.47;;;19.50;;
41514;SDS011;27247;48.020;16.720;2023-04-08T21:30:09;36.95;;;21.08;;
41514;SDS011;27247;48.020;16.720;2023-04-08T21:34:20;38.88;;;20.80;;
41514;SDS011;27247;48.020;16.720;2023-04-08T21:38:30;39.60;;;20.83;;
41514;SDS011;27247;48.020;16.720;2023-04-08T21:42:41;40.15;;;21.42;;
41514;SDS011;27247;48.020;16.720;2023-04-08T21:46:51;37.75;;;20.92;;
41514;SDS011;27247;48.020;16.720;2023-04-08T21:51:03;38.50;;;21.70;;
41514;SDS011;27247;48.020;16.720;2023-04-08T21:55:15;38.92;;;21.35;;
41514;SDS011;27247;48.020;16.720;2023-04-08T21:59:26;43.63;;;21.48;;
41514;SDS011;27247;48.020;16.720;2023-04-08T22:03:36;44.60;;;23.17;;
41514;SDS011;27247;48.020;16.720;2023-04-08T22:07:47;40.73;;;22.00;;
41514;SDS011;27247;48.020;16.720;2023-04-08T22:11:57;41.22;;;22.00;;
41514;SDS011;27247;48.020;16.720;2023-04-08T22:16:08;41.08;;;21.90;;
41514;SDS011;27247;48.020;16.720;2023-04-08T22:20:20;40.40;;;21.58;;
41514;SDS011;27247;48.020;16.720;2023-04-08T22:24:30;40.47;;;22.30;;
41514;SDS011;27247;48.020;16.720;2023-04-08T22:28:40;45.85;;;22.58;;
41514;SDS011;27247;48.020;16.720;2023-04-08T22:32:51;44.28;;;22.15;;
41514;SDS011;27247;48.020;16.720;2023-04-08T22:37:01;40.57;;;21.60;;
41514;SDS011;27247;48.020;16.720;2023-04-08T22:41:18;35.55;;;21.00;;
41514;SDS011;27247;48.020;16.720;2023-04-08T22:45:29;36.97;;;21.77;;
41514;SDS011;27247;48.020;16.720;2023-04-08T22:49:40;41.70;;;22.45;;
41514;SDS011;27247;48.020;16.720;2023-04-08T22:53:51;42.35;;;22.02;;
41514;SDS011;27247;48.020;16.720;2023-04-08T22:58:01;41.05;;;23.17;;
41514;SDS011;27247;48.020;16.720;2023-04-08T23:02:12;41.95;;;22.88;;
41514;SDS011;27247;48.020;16.720;2023-04-08T23:06:22;39.67;;;23.33;;
41514;SDS011;27247;48.020;16.720;2023-04-08T23:10:33;37.22;;;21.42;;
41514;SDS011;27247;48.020;16.720;2023-04-08T23:14:43;34.27;;;20.97;;
41514;SDS011;27247;48.020;16.720;2023-04-08T23:18:54;39.70;;;22.35;;
41514;SDS011;27247;48.020;16.720;2023-04-08T23:23:04;37.70;;;21.80;;
41514;SDS011;27247;48.020;16.720;2023-04-08T23:27:15;36.10;;;21.02;;
41514;SDS011;27247;48.020;16.720;2023-04-08T23:31:25;39.95;;;23.27;;
41514;SDS011;27247;48.020;16.720;2023-04-08T23:35:37;40.72;;;23.27;;
41514;SDS011;27247;48.020;16.720;2023-04-08T23:39:48;39.17;;;22.05;;
41514;SDS011;27247;48.020;16.720;2023-04-08T23:43:58;38.83;;;21.80;;
41514;SDS011;27247;48.020;16.720;2023-04-08T23:48:08;39.83;;;22.07;;
41514;SDS011;27247;48.020;16.720;2023-04-08T23:52:18;39.60;;;22.23;;
41514;SDS011;27247;48.020;16.720;2023-04-08T23:56:29;39.80;;;22.67;;
